sensor_id;sensor_type;location;lat;lon;timestamp;temperature;humidity
3866;DHT22;1948;53.250;10.412;2023-06-01T00:02:19;14.60;99.90
3866;DHT22;1948;53.250;10.412;2023-06-01T00:04:46;14.60;99.90
3866;DHT22;1948;53.250;10.412;2023-06-01T00:07:15;14.60;99.90
3866;DHT22;1948;53.250;10.412;2023-06-01T00:09:45;14.50;99.90
3866;DHT22;1948;53.250;10.412;2023-06-01T00:12:12;14.50;99.90
3866;DHT22;1948;53.250;10.412;2023-06-01T00:14:41;14.50;99.90
3866;DHT22;1948;53.250;10.412;2023-06-01T00:17:08;14.50;99.90
3866;DHT22;1948;53.250;10.412;2023-06-01T00:19:36;14.50;99.90
3866;DHT22;1948;53.250;10.412;2023-06-01T00:22:05;14.50;99.90
3866;DHT22;1948;53.250;10.412;2023-06-01T00:24:34;14.50;99.90
3866;DHT22;1948;53.250;10.412;2023-06-01T00:27:01;14.60;99.90
3866;DHT22;1948;53.250;10.412;2023-06-01T00:29:29;14.50;99.90
3866;DHT22;1948;53.250;10.412;2023-06-01T00:31:56;14.50;99.90
3866;DHT22;1948;53.250;10.412;2023-06-01T00:34:23;14.40;99.90
3866;DHT22;1948;53.250;10.412;2023-06-01T00:36:50;14.50;99.90
3866;DHT22;1948;53.250;10.412;2023-06-01T00:39:17;14.40;99.90
3866;DHT22;1948;53.250;10.412;2023-06-01T00:41:45;14.50;99.90
3866;DHT22;1948;53.250;10.412;2023-06-01T00:44:17;14.50;99.90
3866;DHT22;1948;53.250;10.412;2023-06-01T00:46:44;14.40;99.90
3866;DHT22;1948;53.250;10.412;2023-06-01T00:49:13;14.30;99.90
3866;DHT22;1948;53.250;10.412;2023-06-01T00:51:43;14.30;99.90
3866;DHT22;1948;53.250;10.412;2023-06-01T00:54:10;14.30;99.90
3866;DHT22;1948;53.250;10.412;2023-06-01T00:56:38;14.30;99.90
3866;DHT22;1948;53.250;10.412;2023-06-01T00:59:05;14.20;99.90
3866;DHT22;1948;53.250;10.412;2023-06-01T01:01:32;14.10;99.90
3866;DHT22;1948;53.250;10.412;2023-06-01T01:04:00;14.10;99.90
3866;DHT22;1948;53.250;10.412;2023-06-01T01:09:58;14.00;99.90
3866;DHT22;1948;53.250;10.412;2023-06-01T01:15:24;14.10;99.90
3866;DHT22;1948;53.250;10.412;2023-06-01T01:17:59;14.00;99.90
3866;DHT22;1948;53.250;10.412;2023-06-01T01:20:41;14.00;99.90
3866;DHT22;1948;53.250;10.412;2023-06-01T01:23:38;14.00;99.90
3866;DHT22;1948;53.250;10.412;2023-06-01T01:29:59;14.10;99.90
3866;DHT22;1948;53.250;10.412;2023-06-01T01:32:33;14.10;99.90
3866;DHT22;1948;53.250;10.412;2023-06-01T01:35:04;14.10;99.90
3866;DHT22;1948;53.250;10.412;2023-06-01T01:37:35;14.20;99.90
3866;DHT22;1948;53.250;10.412;2023-06-01T01:40:04;14.10;99.90
3866;DHT22;1948;53.250;10.412;2023-06-01T01:42:32;14.00;99.90
3866;DHT22;1948;53.250;10.412;2023-06-01T01:45:01;14.00;99.90
3866;DHT22;1948;53.250;10.412;2023-06-01T01:47:40;14.00;99.90
3866;DHT22;1948;53.250;10.412;2023-06-01T01:50:32;14.00;99.90
3866;DHT22;1948;53.250;10.412;2023-06-01T01:53:06;14.10;99.90
3866;DHT22;1948;53.250;10.412;2023-06-01T01:55:36;14.00;99.90
3866;DHT22;1948;53.250;10.412;2023-06-01T01:58:06;14.10;99.90
3866;DHT22;1948;53.250;10.412;2023-06-01T02:00:33;14.10;99.90
3866;DHT22;1948;53.250;10.412;2023-06-01T02:03:01;14.20;99.90
3866;DHT22;1948;53.250;10.412;2023-06-01T02:05:30;14.20;99.90
3866;DHT22;1948;53.250;10.412;2023-06-01T02:07:57;14.20;99.90
3866;DHT22;1948;53.250;10.412;2023-06-01T02:10:24;14.20;99.90
3866;DHT22;1948;53.250;10.412;2023-06-01T02:12:54;14.20;99.90
3866;DHT22;1948;53.250;10.412;2023-06-01T02:15:21;14.20;99.90
3866;DHT22;1948;53.250;10.412;2023-06-01T02:17:50;14.20;99.90
3866;DHT22;1948;53.250;10.412;2023-06-01T02:20:18;14.20;99.90
3866;DHT22;1948;53.250;10.412;2023-06-01T02:22:45;14.20;99.90
3866;DHT22;1948;53.250;10.412;2023-06-01T02:25:12;14.20;99.90
3866;DHT22;1948;53.250;10.412;2023-06-01T02:27:39;14.20;99.90
3866;DHT22;1948;53.250;10.412;2023-06-01T02:30:09;14.20;99.90
3866;DHT22;1948;53.250;10.412;2023-06-01T02:32:37;14.20;99.90
3866;DHT22;1948;53.250;10.412;2023-06-01T02:35:06;14.10;99.90
3866;DHT22;1948;53.250;10.412;2023-06-01T02:37:36;14.10;99.90
3866;DHT22;1948;53.250;10.412;2023-06-01T02:40:06;14.00;99.90
3866;DHT22;1948;53.250;10.412;2023-06-01T02:42:38;14.00;99.90
3866;DHT22;1948;53.250;10.412;2023-06-01T02:45:06;14.00;99.90
3866;DHT22;1948;53.250;10.412;2023-06-01T02:47:34;14.00;99.90
3866;DHT22;1948;53.250;10.412;2023-06-01T02:50:07;14.00;99.90
3866;DHT22;1948;53.250;10.412;2023-06-01T02:52:37;14.00;99.90
3866;DHT22;1948;53.250;10.412;2023-06-01T02:55:05;13.90;99.90
3866;DHT22;1948;53.250;10.412;2023-06-01T02:57:34;13.80;99.90
3866;DHT22;1948;53.250;10.412;2023-06-01T03:00:01;13.80;99.90
3866;DHT22;1948;53.250;10.412;2023-06-01T03:02:45;13.80;99.90
3866;DHT22;1948;53.250;10.412;2023-06-01T03:05:15;13.80;99.90
3866;DHT22;1948;53.250;10.412;2023-06-01T03:07:45;13.90;99.90
3866;DHT22;1948;53.250;10.412;2023-06-01T03:10:12;13.90;99.90
3866;DHT22;1948;53.250;10.412;2023-06-01T03:12:39;13.90;99.90
3866;DHT22;1948;53.250;10.412;2023-06-01T03:15:11;13.90;99.90
3866;DHT22;1948;53.250;10.412;2023-06-01T03:17:38;14.00;99.90
3866;DHT22;1948;53.250;10.412;2023-06-01T03:20:09;13.90;99.90
3866;DHT22;1948;53.250;10.412;2023-06-01T03:22:45;13.90;99.90
3866;DHT22;1948;53.250;10.412;2023-06-01T03:25:16;14.00;99.90
3866;DHT22;1948;53.250;10.412;2023-06-01T03:27:45;14.10;99.90
3866;DHT22;1948;53.250;10.412;2023-06-01T03:30:13;14.00;99.90
3866;DHT22;1948;53.250;10.412;2023-06-01T03:32:45;14.00;99.90
3866;DHT22;1948;53.250;10.412;2023-06-01T03:35:15;14.10;99.90
3866;DHT22;1948;53.250;10.412;2023-06-01T03:37:44;14.10;99.90
3866;DHT22;1948;53.250;10.412;2023-06-01T03:40:12;14.00;99.90
3866;DHT22;1948;53.250;10.412;2023-06-01T03:42:44;14.00;99.90
3866;DHT22;1948;53.250;10.412;2023-06-01T03:45:13;14.10;99.90
3866;DHT22;1948;53.250;10.412;2023-06-01T03:47:43;14.10;99.90
3866;DHT22;1948;53.250;10.412;2023-06-01T03:50:13;14.10;99.90
3866;DHT22;1948;53.250;10.412;2023-06-01T03:52:42;14.20;99.90
3866;DHT22;1948;53.250;10.412;2023-06-01T03:55:09;14.10;99.90
3866;DHT22;1948;53.250;10.412;2023-06-01T03:57:40;14.10;99.90
3866;DHT22;1948;53.250;10.412;2023-06-01T04:00:08;14.10;99.90
3866;DHT22;1948;53.250;10.412;2023-06-01T04:02:51;14.00;99.90
3866;DHT22;1948;53.250;10.412;2023-06-01T04:05:24;14.00;99.90
3866;DHT22;1948;53.250;10.412;2023-06-01T04:07:55;14.00;99.90
3866;DHT22;1948;53.250;10.412;2023-06-01T04:10:22;14.10;99.90
3866;DHT22;1948;53.250;10.412;2023-06-01T04:12:51;14.10;99.90
3866;DHT22;1948;53.250;10.412;2023-06-01T04:15:20;14.10;99.90
3866;DHT22;1948;53.250;10.412;2023-06-01T04:17:47;14.20;99.90
3866;DHT22;1948;53.250;10.412;2023-06-01T04:20:15;14.20;99.90
3866;DHT22;1948;53.250;10.412;2023-06-01T04:22:45;14.20;99.90
3866;DHT22;1948;53.250;10.412;2023-06-01T04:25:16;14.20;99.90
3866;DHT22;1948;53.250;10.412;2023-06-01T04:27:46;14.10;99.90
3866;DHT22;1948;53.250;10.412;2023-06-01T04:30:14;14.10;99.90
3866;DHT22;1948;53.250;10.412;2023-06-01T04:32:46;14.10;99.90
3866;DHT22;1948;53.250;10.412;2023-06-01T04:35:15;14.10;99.90
3866;DHT22;1948;53.250;10.412;2023-06-01T04:37:43;14.10;99.90
3866;DHT22;1948;53.250;10.412;2023-06-01T04:40:11;14.10;99.90
3866;DHT22;1948;53.250;10.412;2023-06-01T04:42:41;14.10;99.90
3866;DHT22;1948;53.250;10.412;2023-06-01T04:45:16;14.10;99.90
3866;DHT22;1948;53.250;10.412;2023-06-01T04:47:45;14.20;99.90
3866;DHT22;1948;53.250;10.412;2023-06-01T04:50:16;14.30;99.90
3866;DHT22;1948;53.250;10.412;2023-06-01T04:52:44;14.30;99.90
3866;DHT22;1948;53.250;10.412;2023-06-01T04:55:15;14.30;99.90
3866;DHT22;1948;53.250;10.412;2023-06-01T04:57:43;14.30;99.90
3866;DHT22;1948;53.250;10.412;2023-06-01T05:00:14;14.50;99.90
3866;DHT22;1948;53.250;10.412;2023-06-01T05:02:45;14.40;99.90
3866;DHT22;1948;53.250;10.412;2023-06-01T05:05:15;14.40;99.90
3866;DHT22;1948;53.250;10.412;2023-06-01T05:07:43;14.50;99.90
3866;DHT22;1948;53.250;10.412;2023-06-01T05:10:13;14.40;99.90
3866;DHT22;1948;53.250;10.412;2023-06-01T05:12:42;14.60;99.90
3866;DHT22;1948;53.250;10.412;2023-06-01T05:15:12;14.60;99.90
3866;DHT22;1948;53.250;10.412;2023-06-01T05:17:40;14.60;99.90
3866;DHT22;1948;53.250;10.412;2023-06-01T05:20:10;14.50;99.90
3866;DHT22;1948;53.250;10.412;2023-06-01T05:22:38;14.50;99.90
3866;DHT22;1948;53.250;10.412;2023-06-01T05:25:06;14.50;99.90
3866;DHT22;1948;53.250;10.412;2023-06-01T05:27:34;14.60;99.90
3866;DHT22;1948;53.250;10.412;2023-06-01T05:30:01;14.70;99.90
3866;DHT22;1948;53.250;10.412;2023-06-01T05:32:28;14.80;99.90
3866;DHT22;1948;53.250;10.412;2023-06-01T05:34:56;14.90;99.90
3866;DHT22;1948;53.250;10.412;2023-06-01T05:37:23;15.00;99.90
3866;DHT22;1948;53.250;10.412;2023-06-01T05:39:50;15.10;99.90
3866;DHT22;1948;53.250;10.412;2023-06-01T05:42:17;15.10;99.90
3866;DHT22;1948;53.250;10.412;2023-06-01T05:44:43;15.10;99.90
3866;DHT22;1948;53.250;10.412;2023-06-01T05:47:13;15.10;99.90
3866;DHT22;1948;53.250;10.412;2023-06-01T05:49:40;15.20;99.90
3866;DHT22;1948;53.250;10.412;2023-06-01T05:52:08;15.20;99.90
3866;DHT22;1948;53.250;10.412;2023-06-01T05:54:36;15.20;99.90
3866;DHT22;1948;53.250;10.412;2023-06-01T05:57:03;15.00;99.90
3866;DHT22;1948;53.250;10.412;2023-06-01T05:59:33;14.90;99.90
3866;DHT22;1948;53.250;10.412;2023-06-01T06:02:00;15.00;99.90
3866;DHT22;1948;53.250;10.412;2023-06-01T06:04:27;15.10;99.90
3866;DHT22;1948;53.250;10.412;2023-06-01T06:06:54;15.20;99.90
3866;DHT22;1948;53.250;10.412;2023-06-01T06:09:21;15.30;99.90
3866;DHT22;1948;53.250;10.412;2023-06-01T06:11:49;15.30;99.90
3866;DHT22;1948;53.250;10.412;2023-06-01T06:14:16;15.30;99.90
3866;DHT22;1948;53.250;10.412;2023-06-01T06:16:46;15.40;99.90
3866;DHT22;1948;53.250;10.412;2023-06-01T06:19:13;15.50;99.90
3866;DHT22;1948;53.250;10.412;2023-06-01T06:21:42;15.50;99.90
3866;DHT22;1948;53.250;10.412;2023-06-01T06:24:11;15.60;99.90
3866;DHT22;1948;53.250;10.412;2023-06-01T06:26:38;15.80;99.90
3866;DHT22;1948;53.250;10.412;2023-06-01T06:29:08;16.00;99.90
3866;DHT22;1948;53.250;10.412;2023-06-01T06:31:35;16.00;99.90
3866;DHT22;1948;53.250;10.412;2023-06-01T06:34:02;15.90;99.90
3866;DHT22;1948;53.250;10.412;2023-06-01T06:36:29;15.80;99.90
3866;DHT22;1948;53.250;10.412;2023-06-01T06:38:57;15.90;99.90
3866;DHT22;1948;53.250;10.412;2023-06-01T06:41:24;16.00;99.90
3866;DHT22;1948;53.250;10.412;2023-06-01T06:43:51;15.90;99.90
3866;DHT22;1948;53.250;10.412;2023-06-01T06:46:18;15.90;99.90
3866;DHT22;1948;53.250;10.412;2023-06-01T06:48:45;15.90;99.90
3866;DHT22;1948;53.250;10.412;2023-06-01T06:51:14;15.80;99.90
3866;DHT22;1948;53.250;10.412;2023-06-01T06:53:41;15.80;99.90
3866;DHT22;1948;53.250;10.412;2023-06-01T06:56:11;15.80;99.90
3866;DHT22;1948;53.250;10.412;2023-06-01T06:58:38;15.90;99.90
3866;DHT22;1948;53.250;10.412;2023-06-01T07:01:17;16.10;99.90
3866;DHT22;1948;53.250;10.412;2023-06-01T07:03:45;16.20;99.90
3866;DHT22;1948;53.250;10.412;2023-06-01T07:06:15;16.10;99.90
3866;DHT22;1948;53.250;10.412;2023-06-01T07:08:45;16.00;99.90
3866;DHT22;1948;53.250;10.412;2023-06-01T07:11:14;16.20;99.90
3866;DHT22;1948;53.250;10.412;2023-06-01T07:13:42;16.20;99.90
3866;DHT22;1948;53.250;10.412;2023-06-01T07:16:09;16.20;99.90
3866;DHT22;1948;53.250;10.412;2023-06-01T07:18:41;16.30;99.90
3866;DHT22;1948;53.250;10.412;2023-06-01T07:21:10;16.30;99.90
3866;DHT22;1948;53.250;10.412;2023-06-01T07:23:37;16.30;99.90
3866;DHT22;1948;53.250;10.412;2023-06-01T07:26:04;16.40;99.90
3866;DHT22;1948;53.250;10.412;2023-06-01T07:28:31;16.50;99.90
3866;DHT22;1948;53.250;10.412;2023-06-01T07:30:59;16.70;99.90
3866;DHT22;1948;53.250;10.412;2023-06-01T07:33:29;16.70;99.90
3866;DHT22;1948;53.250;10.412;2023-06-01T07:35:57;16.60;99.90
3866;DHT22;1948;53.250;10.412;2023-06-01T07:38:25;16.60;99.90
3866;DHT22;1948;53.250;10.412;2023-06-01T07:40:55;16.70;99.90
3866;DHT22;1948;53.250;10.412;2023-06-01T07:43:22;16.70;99.90
3866;DHT22;1948;53.250;10.412;2023-06-01T07:45:49;16.80;99.90
3866;DHT22;1948;53.250;10.412;2023-06-01T07:48:16;17.10;99.90
3866;DHT22;1948;53.250;10.412;2023-06-01T07:50:43;17.30;99.90
3866;DHT22;1948;53.250;10.412;2023-06-01T07:53:13;17.40;99.90
3866;DHT22;1948;53.250;10.412;2023-06-01T07:55:44;17.50;99.90
3866;DHT22;1948;53.250;10.412;2023-06-01T07:58:11;17.60;99.90
3866;DHT22;1948;53.250;10.412;2023-06-01T08:00:38;17.70;99.90
3866;DHT22;1948;53.250;10.412;2023-06-01T08:03:08;17.70;99.90
3866;DHT22;1948;53.250;10.412;2023-06-01T08:05:35;17.80;99.90
3866;DHT22;1948;53.250;10.412;2023-06-01T08:08:05;17.70;99.90
3866;DHT22;1948;53.250;10.412;2023-06-01T08:10:32;17.70;99.90
3866;DHT22;1948;53.250;10.412;2023-06-01T08:12:59;17.90;99.90
3866;DHT22;1948;53.250;10.412;2023-06-01T08:15:26;18.00;99.90
3866;DHT22;1948;53.250;10.412;2023-06-01T08:17:54;18.20;99.90
3866;DHT22;1948;53.250;10.412;2023-06-01T08:20:23;18.50;99.90
3866;DHT22;1948;53.250;10.412;2023-06-01T08:22:52;18.70;99.90
3866;DHT22;1948;53.250;10.412;2023-06-01T08:25:19;18.80;99.90
3866;DHT22;1948;53.250;10.412;2023-06-01T08:27:46;18.90;99.90
3866;DHT22;1948;53.250;10.412;2023-06-01T08:30:16;18.80;99.90
3866;DHT22;1948;53.250;10.412;2023-06-01T08:32:46;18.80;99.90
3866;DHT22;1948;53.250;10.412;2023-06-01T08:35:15;18.80;99.90
3866;DHT22;1948;53.250;10.412;2023-06-01T08:37:42;18.80;99.90
3866;DHT22;1948;53.250;10.412;2023-06-01T08:40:09;18.90;99.90
3866;DHT22;1948;53.250;10.412;2023-06-01T08:43:14;19.00;99.90
3866;DHT22;1948;53.250;10.412;2023-06-01T08:45:44;19.20;99.90
3866;DHT22;1948;53.250;10.412;2023-06-01T08:48:19;18.90;99.90
3866;DHT22;1948;53.250;10.412;2023-06-01T08:50:51;19.10;99.90
3866;DHT22;1948;53.250;10.412;2023-06-01T08:53:20;19.40;99.90
3866;DHT22;1948;53.250;10.412;2023-06-01T08:55:54;19.40;99.90
3866;DHT22;1948;53.250;10.412;2023-06-01T08:58:24;19.40;99.90
3866;DHT22;1948;53.250;10.412;2023-06-01T09:00:53;19.40;99.90
3866;DHT22;1948;53.250;10.412;2023-06-01T09:03:20;19.50;99.90
3866;DHT22;1948;53.250;10.412;2023-06-01T09:05:47;19.50;99.90
3866;DHT22;1948;53.250;10.412;2023-06-01T09:08:15;19.50;99.90
3866;DHT22;1948;53.250;10.412;2023-06-01T09:10:42;19.60;99.90
3866;DHT22;1948;53.250;10.412;2023-06-01T09:13:09;19.50;99.90
3866;DHT22;1948;53.250;10.412;2023-06-01T09:15:50;19.40;99.90
3866;DHT22;1948;53.250;10.412;2023-06-01T09:18:21;19.30;99.90
3866;DHT22;1948;53.250;10.412;2023-06-01T09:20:48;19.20;99.90
3866;DHT22;1948;53.250;10.412;2023-06-01T09:23:27;19.30;99.90
3866;DHT22;1948;53.250;10.412;2023-06-01T09:26:27;19.00;99.90
3866;DHT22;1948;53.250;10.412;2023-06-01T09:29:00;19.20;99.90
3866;DHT22;1948;53.250;10.412;2023-06-01T09:31:47;19.40;99.90
3866;DHT22;1948;53.250;10.412;2023-06-01T09:34:20;19.60;99.90
3866;DHT22;1948;53.250;10.412;2023-06-01T09:36:49;19.80;99.90
3866;DHT22;1948;53.250;10.412;2023-06-01T09:39:22;19.90;99.90
3866;DHT22;1948;53.250;10.412;2023-06-01T09:41:56;19.70;99.90
3866;DHT22;1948;53.250;10.412;2023-06-01T09:44:27;19.50;99.90
3866;DHT22;1948;53.250;10.412;2023-06-01T09:46:57;19.60;99.90
3866;DHT22;1948;53.250;10.412;2023-06-01T09:49:28;19.70;99.90
3866;DHT22;1948;53.250;10.412;2023-06-01T09:54:37;19.90;99.90
3866;DHT22;1948;53.250;10.412;2023-06-01T09:57:05;20.10;99.90
3866;DHT22;1948;53.250;10.412;2023-06-01T10:02:18;20.20;99.90
3866;DHT22;1948;53.250;10.412;2023-06-01T10:04:54;20.30;99.90
3866;DHT22;1948;53.250;10.412;2023-06-01T10:07:34;20.40;99.90
3866;DHT22;1948;53.250;10.412;2023-06-01T10:10:05;20.70;99.90
3866;DHT22;1948;53.250;10.412;2023-06-01T10:12:33;20.90;99.90
3866;DHT22;1948;53.250;10.412;2023-06-01T10:15:01;20.90;99.90
3866;DHT22;1948;53.250;10.412;2023-06-01T10:17:53;20.80;99.90
3866;DHT22;1948;53.250;10.412;2023-06-01T10:20:23;21.00;99.90
3866;DHT22;1948;53.250;10.412;2023-06-01T10:22:53;20.90;99.90
3866;DHT22;1948;53.250;10.412;2023-06-01T10:25:22;20.90;99.90
3866;DHT22;1948;53.250;10.412;2023-06-01T10:28:02;20.70;99.90
3866;DHT22;1948;53.250;10.412;2023-06-01T10:30:34;20.70;99.90
3866;DHT22;1948;53.250;10.412;2023-06-01T10:33:01;20.70;99.90
3866;DHT22;1948;53.250;10.412;2023-06-01T10:40:44;20.60;99.90
3866;DHT22;1948;53.250;10.412;2023-06-01T10:49:02;21.00;99.90
3866;DHT22;1948;53.250;10.412;2023-06-01T10:51:29;21.10;99.90
3866;DHT22;1948;53.250;10.412;2023-06-01T10:54:27;21.10;99.90
3866;DHT22;1948;53.250;10.412;2023-06-01T10:57:21;21.00;99.90
3866;DHT22;1948;53.250;10.412;2023-06-01T11:08:00;21.40;99.90
3866;DHT22;1948;53.250;10.412;2023-06-01T11:14:07;21.40;99.90
3866;DHT22;1948;53.250;10.412;2023-06-01T11:16:36;21.40;99.90
3866;DHT22;1948;53.250;10.412;2023-06-01T11:19:07;21.40;99.90
3866;DHT22;1948;53.250;10.412;2023-06-01T11:21:42;21.40;99.90
3866;DHT22;1948;53.250;10.412;2023-06-01T11:24:16;21.40;99.90
3866;DHT22;1948;53.250;10.412;2023-06-01T11:26:48;21.10;99.90
3866;DHT22;1948;53.250;10.412;2023-06-01T11:29:21;21.10;99.90
3866;DHT22;1948;53.250;10.412;2023-06-01T11:31:57;21.40;99.90
3866;DHT22;1948;53.250;10.412;2023-06-01T11:37:15;21.10;99.90
3866;DHT22;1948;53.250;10.412;2023-06-01T11:39:44;21.10;99.90
3866;DHT22;1948;53.250;10.412;2023-06-01T11:42:19;21.10;99.90
3866;DHT22;1948;53.250;10.412;2023-06-01T11:44:56;21.20;99.90
3866;DHT22;1948;53.250;10.412;2023-06-01T11:47:28;21.60;99.90
3866;DHT22;1948;53.250;10.412;2023-06-01T11:50:02;21.80;99.90
3866;DHT22;1948;53.250;10.412;2023-06-01T11:52:29;22.00;99.90
3866;DHT22;1948;53.250;10.412;2023-06-01T11:55:02;22.10;99.90
3866;DHT22;1948;53.250;10.412;2023-06-01T11:57:29;22.20;99.90
3866;DHT22;1948;53.250;10.412;2023-06-01T12:00:01;21.90;99.90
3866;DHT22;1948;53.250;10.412;2023-06-01T12:02:30;21.70;99.90
3866;DHT22;1948;53.250;10.412;2023-06-01T12:05:04;21.60;99.90
3866;DHT22;1948;53.250;10.412;2023-06-01T12:07:48;21.70;99.90
3866;DHT22;1948;53.250;10.412;2023-06-01T12:10:18;21.70;99.90
3866;DHT22;1948;53.250;10.412;2023-06-01T12:12:47;21.80;99.90
3866;DHT22;1948;53.250;10.412;2023-06-01T12:15:18;22.10;99.90
3866;DHT22;1948;53.250;10.412;2023-06-01T12:17:53;22.30;99.90
3866;DHT22;1948;53.250;10.412;2023-06-01T12:23:01;22.20;99.90
3866;DHT22;1948;53.250;10.412;2023-06-01T12:28:23;22.20;99.90
3866;DHT22;1948;53.250;10.412;2023-06-01T12:31:12;22.20;99.90
3866;DHT22;1948;53.250;10.412;2023-06-01T12:33:45;22.20;99.90
3866;DHT22;1948;53.250;10.412;2023-06-01T12:36:30;22.40;99.90
3866;DHT22;1948;53.250;10.412;2023-06-01T12:38:58;22.60;99.90
3866;DHT22;1948;53.250;10.412;2023-06-01T12:41:30;22.60;99.90
3866;DHT22;1948;53.250;10.412;2023-06-01T12:43:57;22.50;99.90
3866;DHT22;1948;53.250;10.412;2023-06-01T12:46:27;22.50;99.90
3866;DHT22;1948;53.250;10.412;2023-06-01T12:49:15;22.50;99.90
3866;DHT22;1948;53.250;10.412;2023-06-01T12:51:44;22.40;99.90
3866;DHT22;1948;53.250;10.412;2023-06-01T12:54:14;22.40;99.90
3866;DHT22;1948;53.250;10.412;2023-06-01T12:56:41;22.50;99.90
3866;DHT22;1948;53.250;10.412;2023-06-01T12:59:11;22.60;99.90
3866;DHT22;1948;53.250;10.412;2023-06-01T13:01:40;22.50;99.90
3866;DHT22;1948;53.250;10.412;2023-06-01T13:04:08;22.20;99.90
3866;DHT22;1948;53.250;10.412;2023-06-01T13:06:38;22.40;99.90
3866;DHT22;1948;53.250;10.412;2023-06-01T13:09:05;22.30;99.90
3866;DHT22;1948;53.250;10.412;2023-06-01T13:11:33;22.20;99.90
3866;DHT22;1948;53.250;10.412;2023-06-01T13:14:01;22.20;99.90
3866;DHT22;1948;53.250;10.412;2023-06-01T13:16:32;22.00;99.90
3866;DHT22;1948;53.250;10.412;2023-06-01T13:18:59;21.80;99.90
3866;DHT22;1948;53.250;10.412;2023-06-01T13:21:32;21.80;99.90
3866;DHT22;1948;53.250;10.412;2023-06-01T13:24:04;21.70;99.90
3866;DHT22;1948;53.250;10.412;2023-06-01T13:26:34;21.60;99.90
3866;DHT22;1948;53.250;10.412;2023-06-01T13:29:01;21.60;99.90
3866;DHT22;1948;53.250;10.412;2023-06-01T13:31:28;21.60;99.90
3866;DHT22;1948;53.250;10.412;2023-06-01T13:33:56;21.70;99.90
3866;DHT22;1948;53.250;10.412;2023-06-01T13:36:27;21.80;99.90
3866;DHT22;1948;53.250;10.412;2023-06-01T13:38:57;21.70;99.90
3866;DHT22;1948;53.250;10.412;2023-06-01T13:41:24;21.50;99.90
3866;DHT22;1948;53.250;10.412;2023-06-01T13:43:53;21.40;99.90
3866;DHT22;1948;53.250;10.412;2023-06-01T13:46:23;21.40;99.90
3866;DHT22;1948;53.250;10.412;2023-06-01T13:48:50;21.30;99.90
3866;DHT22;1948;53.250;10.412;2023-06-01T13:51:17;21.00;99.90
3866;DHT22;1948;53.250;10.412;2023-06-01T13:53:49;20.90;99.90
3866;DHT22;1948;53.250;10.412;2023-06-01T13:56:16;21.00;99.90
3866;DHT22;1948;53.250;10.412;2023-06-01T13:58:46;21.10;99.90
3866;DHT22;1948;53.250;10.412;2023-06-01T14:01:13;21.20;99.90
3866;DHT22;1948;53.250;10.412;2023-06-01T14:03:40;21.20;99.90
3866;DHT22;1948;53.250;10.412;2023-06-01T14:06:07;21.10;99.90
3866;DHT22;1948;53.250;10.412;2023-06-01T14:08:34;21.10;99.90
3866;DHT22;1948;53.250;10.412;2023-06-01T14:11:04;21.10;99.90
3866;DHT22;1948;53.250;10.412;2023-06-01T14:13:33;21.00;99.90
3866;DHT22;1948;53.250;10.412;2023-06-01T14:16:02;20.90;99.90
3866;DHT22;1948;53.250;10.412;2023-06-01T14:18:30;20.90;99.90
3866;DHT22;1948;53.250;10.412;2023-06-01T14:20:57;20.90;99.90
3866;DHT22;1948;53.250;10.412;2023-06-01T14:23:26;20.80;99.90
3866;DHT22;1948;53.250;10.412;2023-06-01T14:25:56;20.60;99.90
3866;DHT22;1948;53.250;10.412;2023-06-01T14:28:26;20.60;99.90
3866;DHT22;1948;53.250;10.412;2023-06-01T14:30:53;20.60;99.90
3866;DHT22;1948;53.250;10.412;2023-06-01T14:33:23;20.70;99.90
3866;DHT22;1948;53.250;10.412;2023-06-01T14:35:50;20.70;99.90
3866;DHT22;1948;53.250;10.412;2023-06-01T14:38:17;20.60;99.90
3866;DHT22;1948;53.250;10.412;2023-06-01T14:40:47;20.70;99.90
3866;DHT22;1948;53.250;10.412;2023-06-01T14:43:14;20.70;99.90
3866;DHT22;1948;53.250;10.412;2023-06-01T14:45:43;20.80;99.90
3866;DHT22;1948;53.250;10.412;2023-06-01T14:48:10;20.80;99.90
3866;DHT22;1948;53.250;10.412;2023-06-01T14:50:37;20.60;99.90
3866;DHT22;1948;53.250;10.412;2023-06-01T14:53:04;20.50;99.90
3866;DHT22;1948;53.250;10.412;2023-06-01T14:55:33;20.50;99.90
3866;DHT22;1948;53.250;10.412;2023-06-01T14:58:02;20.50;99.90
3866;DHT22;1948;53.250;10.412;2023-06-01T15:00:35;20.50;99.90
3866;DHT22;1948;53.250;10.412;2023-06-01T15:03:03;20.30;99.90
3866;DHT22;1948;53.250;10.412;2023-06-01T15:05:30;20.30;99.90
3866;DHT22;1948;53.250;10.412;2023-06-01T15:08:05;20.20;99.90
3866;DHT22;1948;53.250;10.412;2023-06-01T15:10:35;20.20;99.90
3866;DHT22;1948;53.250;10.412;2023-06-01T15:13:05;20.20;99.90
3866;DHT22;1948;53.250;10.412;2023-06-01T15:15:34;20.00;99.90
3866;DHT22;1948;53.250;10.412;2023-06-01T15:18:04;20.10;99.90
3866;DHT22;1948;53.250;10.412;2023-06-01T15:20:31;20.10;99.90
3866;DHT22;1948;53.250;10.412;2023-06-01T15:23:01;20.00;99.90
3866;DHT22;1948;53.250;10.412;2023-06-01T15:25:29;20.10;99.90
3866;DHT22;1948;53.250;10.412;2023-06-01T15:27:56;20.10;99.90
3866;DHT22;1948;53.250;10.412;2023-06-01T15:30:23;20.10;99.90
3866;DHT22;1948;53.250;10.412;2023-06-01T15:32:50;20.10;99.90
3866;DHT22;1948;53.250;10.412;2023-06-01T15:35:32;20.00;99.90
3866;DHT22;1948;53.250;10.412;2023-06-01T15:38:02;20.00;99.90
3866;DHT22;1948;53.250;10.412;2023-06-01T15:40:34;19.90;99.90
3866;DHT22;1948;53.250;10.412;2023-06-01T15:43:01;19.80;99.90
3866;DHT22;1948;53.250;10.412;2023-06-01T15:45:31;19.70;99.90
3866;DHT22;1948;53.250;10.412;2023-06-01T15:47:58;19.50;99.90
3866;DHT22;1948;53.250;10.412;2023-06-01T15:50:27;19.50;99.90
3866;DHT22;1948;53.250;10.412;2023-06-01T15:53:01;19.50;99.90
3866;DHT22;1948;53.250;10.412;2023-06-01T15:55:28;19.50;99.90
3866;DHT22;1948;53.250;10.412;2023-06-01T15:58:04;19.50;99.90
3866;DHT22;1948;53.250;10.412;2023-06-01T16:00:33;19.30;99.90
3866;DHT22;1948;53.250;10.412;2023-06-01T16:03:03;19.30;99.90
3866;DHT22;1948;53.250;10.412;2023-06-01T16:05:31;19.30;99.90
3866;DHT22;1948;53.250;10.412;2023-06-01T16:08:01;19.40;99.90
3866;DHT22;1948;53.250;10.412;2023-06-01T16:10:28;19.30;99.90
3866;DHT22;1948;53.250;10.412;2023-06-01T16:12:56;19.20;99.90
3866;DHT22;1948;53.250;10.412;2023-06-01T16:15:25;19.20;99.90
3866;DHT22;1948;53.250;10.412;2023-06-01T16:17:55;19.20;99.90
3866;DHT22;1948;53.250;10.412;2023-06-01T16:20:22;19.20;99.90
3866;DHT22;1948;53.250;10.412;2023-06-01T16:22:49;19.20;99.90
3866;DHT22;1948;53.250;10.412;2023-06-01T16:25:16;19.20;99.90
3866;DHT22;1948;53.250;10.412;2023-06-01T16:27:49;19.20;99.90
3866;DHT22;1948;53.250;10.412;2023-06-01T16:30:17;19.30;99.90
3866;DHT22;1948;53.250;10.412;2023-06-01T16:32:52;19.30;99.90
3866;DHT22;1948;53.250;10.412;2023-06-01T16:35:19;19.10;99.90
3866;DHT22;1948;53.250;10.412;2023-06-01T16:37:46;19.10;99.90
3866;DHT22;1948;53.250;10.412;2023-06-01T16:40:13;19.10;99.90
3866;DHT22;1948;53.250;10.412;2023-06-01T16:42:40;19.10;99.90
3866;DHT22;1948;53.250;10.412;2023-06-01T16:45:07;19.20;99.90
3866;DHT22;1948;53.250;10.412;2023-06-01T16:47:34;19.10;99.90
3866;DHT22;1948;53.250;10.412;2023-06-01T16:50:04;19.10;99.90